Ft Devens, Massachusetts
Current Conditions -  °F | °C
As of 1:52 PM on Friday 24 Oct 2014 (Local Time) from KFIT Reporting Station
Overcast Overcast  
Wind Chill: 52°   Ceiling: 2200
Heat Index: 52°   Visibility: 10mi
Dew Point: 42°   Wind: 13mph
Humidity: 69%   Direction: 320°NW
Pressure: 29.72"   Gusts: 21mph
Location:  42.5336°N, 71.6215°W
Report Text: KFIT 241752Z AUTO 32011G18KT 10SM OVC022 11/06 A2972 RMK AO2 SLP064 T01110056 10117 20100 58009
Loading
Personal Weather Stations






























Interactive Weather Map
Tropical Storm Tracking
New forecast layout! Learn more

10-Day Weather Forecast

Advertisements
Track Severe Weather on mobile